Time;durP1;ratioP1;P1;durP2;ratioP2;P2;SDS_P1;SDS_P2;PMS_P1;PMS_P2;Temp;Humidity;BMP_temperature;BMP_pressure;BME280_temperature;BME280_humidity;BME280_pressure;Samples;Min_cycle;Max_cycle;Signal;HPM_P1;HPM_P2
2022/09/13 00:00:41;;;;;;;3.90;3.50;;;;;;;-141.28;100.00;50090.75;5107213;28;20614;-72
2022/09/13 00:03:08;;;;;;;4.60;3.60;;;;;;;-141.28;100.00;50086.84;5102806;28;20622;-72
2022/09/13 00:05:36;;;;;;;6.53;3.73;;;;;;;-141.28;100.00;50071.13;5105449;28;20306;-70
2022/09/13 00:08:03;;;;;;;4.40;3.77;;;;;;;-141.28;100.00;50027.97;5091408;28;20191;-71
2022/09/13 00:10:34;;;;;;;5.53;4.10;;;;;;;-141.28;100.00;50016.19;5091805;28;20592;-71
2022/09/13 00:13:01;;;;;;;5.97;3.70;;;;;;;-141.28;100.00;49992.63;5095224;28;20290;-71
2022/09/13 00:15:28;;;;;;;4.17;3.67;;;;;;;-141.28;100.00;49973.00;5106351;28;20326;-71
2022/09/13 00:17:55;;;;;;;4.97;3.77;;;;;;;-141.28;100.00;49957.31;5115608;28;20202;-71
2022/09/13 00:20:22;;;;;;;4.23;3.70;;;;;;;-141.28;100.00;49890.56;5106042;28;20222;-71
2022/09/13 00:22:49;;;;;;;5.83;3.87;;;;;;;-141.28;100.00;49827.78;5116674;28;20195;-71
2022/09/13 00:25:15;;;;;;;4.40;3.93;;;;;;;-141.28;100.00;49823.84;5108562;28;20191;-71
2022/09/13 00:27:44;;;;;;;14.87;4.80;;;;;;;-141.28;100.00;49814.03;5098062;28;20195;-71
2022/09/13 00:30:12;;;;;;;6.77;4.70;;;;;;;-141.28;100.00;49780.69;5117676;28;20198;-71
2022/09/13 00:32:40;;;;;;;5.40;4.37;;;;;;;-141.28;100.00;49763.00;5117067;28;20265;-73
2022/09/13 00:35:08;;;;;;;5.37;4.13;;;;;;;-141.28;100.00;49713.94;5107855;28;20199;-70
2022/09/13 00:37:35;;;;;;;7.97;4.63;;;;;;;-141.28;100.00;49688.44;5097120;28;20187;-71
2022/09/13 00:40:02;;;;;;;14.63;5.13;;;;;;;-141.28;100.00;49659.00;5097251;28;20276;-72
2022/09/13 00:42:31;;;;;;;8.03;4.50;;;;;;;-141.28;100.00;49641.34;5100907;28;20195;-72
2022/09/13 00:45:01;;;;;;;9.73;4.67;;;;;;;-141.28;100.00;49588.34;5117895;28;20313;-70
2022/09/13 00:47:35;;;;;;;5.30;4.73;;;;;;;-141.28;100.00;49572.66;5117310;28;20202;-71
2022/09/13 00:50:10;;;;;;;7.00;4.93;;;;;;;-141.28;100.00;49547.16;5118123;28;20201;-72
2022/09/13 00:52:38;;;;;;;7.73;5.53;;;;;;;-141.28;100.00;49517.72;5090577;28;20199;-72
2022/09/13 00:55:12;;;;;;;7.10;5.30;;;;;;;-141.28;100.00;49478.47;5091782;28;20256;-72
2022/09/13 00:57:41;;;;;;;9.63;5.37;;;;;;;-141.28;100.00;49447.06;5089030;28;20196;-72
2022/09/13 01:00:12;;;;;;;9.77;6.10;;;;;;;-141.28;100.00;49454.94;5077587;28;20643;-72
2022/09/13 01:02:44;;;;;;;9.10;5.80;;;;;;;-141.28;100.00;49462.78;5077971;28;20642;-71
2022/09/13 01:05:14;;;;;;;13.67;5.27;;;;;;;-141.28;100.00;49478.47;5094480;28;20227;-71
2022/09/13 01:07:42;;;;;;;8.83;5.40;;;;;;;-141.28;100.00;49454.94;5098011;28;20291;-71
2022/09/13 01:10:11;;;;;;;12.00;5.30;;;;;;;-141.28;100.00;49427.44;5086049;28;20319;-72
2022/09/13 01:12:47;;;;;;;6.73;4.60;;;;;;;-141.28;100.00;49433.34;5095060;28;20684;-72
2022/09/13 01:15:18;;;;;;;8.53;5.30;;;;;;;-141.28;100.00;49451.00;5090947;28;20196;-72
2022/09/13 01:17:45;;;;;;;6.53;5.57;;;;;;;-141.28;100.00;49413.72;5078243;28;20200;-73
2022/09/13 01:20:13;;;;;;;9.83;6.03;;;;;;;-141.28;100.00;49345.03;5091575;28;20228;-74
2022/09/13 01:23:04;;;;;;;5.83;5.20;;;;;;;-141.28;100.00;49372.50;5078056;28;20196;-72
2022/09/13 01:26:12;;;;;;;6.00;5.43;;;;;;;-141.28;100.00;49474.53;5075183;28;20239;-73
2022/09/13 01:29:08;;;;;;;9.73;6.23;;;;;;;-141.28;100.00;49474.53;5077466;28;20196;-72
2022/09/13 01:31:47;;;;;;;6.90;5.53;;;;;;;-141.28;100.00;49431.38;5092638;28;20188;-73
2022/09/13 01:34:28;;;;;;;9.33;6.00;;;;;;;-141.28;100.00;49337.19;5075633;28;20216;-71
2022/09/13 01:37:14;;;;;;;8.80;5.47;;;;;;;-141.28;100.00;49282.25;5094424;28;20616;-71
2022/09/13 01:40:04;;;;;;;6.90;5.43;;;;;;;-141.28;100.00;49266.56;5080471;28;20288;-71
2022/09/13 01:42:46;;;;;;;8.90;5.40;;;;;;;-141.28;100.00;49225.34;5093169;28;20231;-71
2022/09/13 01:45:37;;;;;;;6.73;5.27;;;;;;;-141.28;100.00;49239.09;5077805;28;20307;-71
2022/09/13 01:48:14;;;;;;;6.77;5.70;;;;;;;-141.28;100.00;49188.06;5106276;28;20195;-72
2022/09/13 01:50:46;;;;;;;6.07;5.20;;;;;;;-141.28;100.00;49135.09;5077044;28;20624;-71
2022/09/13 01:53:31;;;;;;;6.93;5.33;;;;;;;-141.28;100.00;49115.47;5082237;28;20195;-71
2022/09/13 01:56:06;;;;;;;13.93;6.03;;;;;;;-141.28;100.00;49109.59;5085804;28;20195;-72
2022/09/13 01:58:42;;;;;;;5.97;5.30;;;;;;;-141.28;100.00;49109.59;5093944;28;20199;-71
2022/09/13 02:01:15;;;;;;;9.10;5.30;;;;;;;-141.28;100.00;49105.66;5077326;28;20304;-71
2022/09/13 02:03:51;;;;;;;8.60;5.00;;;;;;;-141.28;100.00;49089.97;5082989;28;20283;-71
2022/09/13 02:06:22;;;;;;;9.27;5.90;;;;;;;-141.28;100.00;49113.50;5078522;28;20726;-71
2022/09/13 02:08:53;;;;;;;7.33;5.30;;;;;;;-141.28;100.00;49082.13;5105932;28;20206;-71
2022/09/13 02:11:21;;;;;;;15.53;5.23;;;;;;;-141.28;100.00;49099.78;5092624;28;20199;-71
2022/09/13 02:13:55;;;;;;;8.53;5.20;;;;;;;-141.28;100.00;49093.88;5105335;28;20199;-70
2022/09/13 02:16:30;;;;;;;7.17;4.73;;;;;;;-141.28;100.00;49113.50;5085000;28;20196;-71
2022/09/13 02:19:02;;;;;;;7.40;5.27;;;;;;;-141.28;100.00;49117.44;5092150;28;20305;-71
2022/09/13 02:21:33;;;;;;;7.77;4.97;;;;;;;-141.28;100.00;49109.59;5093273;28;20271;-71
2022/09/13 02:24:03;;;;;;;7.83;4.53;;;;;;;-141.28;100.00;49133.13;5093321;28;20215;-72
2022/09/13 02:26:32;;;;;;;6.33;4.83;;;;;;;-141.28;100.00;49125.28;5079836;28;20253;-70
2022/09/13 02:29:03;;;;;;;5.07;4.57;;;;;;;-141.28;100.00;49148.81;5093242;28;20192;-71
2022/09/13 02:31:35;;;;;;;7.50;4.30;;;;;;;-141.28;100.00;49158.63;5074043;28;20294;-70
2022/09/13 02:34:06;;;;;;;8.53;4.67;;;;;;;-141.28;100.00;49184.13;5073002;28;20200;-71
2022/09/13 02:36:36;;;;;;;10.47;6.20;;;;;;;-141.28;100.00;49201.81;5079966;28;20204;-71
2022/09/13 02:39:06;;;;;;;10.00;5.80;;;;;;;-141.28;100.00;49190.03;5078848;28;20204;-71
2022/09/13 02:41:39;;;;;;;9.17;5.70;;;;;;;-141.28;100.00;49197.88;5081007;28;20257;-70
2022/09/13 02:44:11;;;;;;;8.73;6.00;;;;;;;-141.28;100.00;49199.84;5103527;28;20199;-71
2022/09/13 02:47:00;;;;;;;7.03;5.23;;;;;;;-141.28;100.00;49215.53;5072845;28;20203;-72
2022/09/13 02:49:33;;;;;;;10.07;5.10;;;;;;;-141.28;100.00;49199.84;5112581;28;20210;-70
2022/09/13 02:52:09;;;;;;;6.57;4.80;;;;;;;-141.28;100.00;49188.06;5112228;28;20206;-71
2022/09/13 02:54:42;;;;;;;6.40;5.20;;;;;;;-141.28;100.00;49168.44;5112944;28;20672;-71
2022/09/13 02:57:15;;;;;;;5.97;4.97;;;;;;;-141.28;100.00;49166.47;5080935;28;20223;-70
2022/09/13 02:59:41;;;;;;;8.13;4.80;;;;;;;-141.28;100.00;49168.44;5082523;28;20220;-71
2022/09/13 03:02:12;;;;;;;7.47;5.00;;;;;;;-141.28;100.00;49174.34;5105658;28;20298;-70
2022/09/13 03:04:40;;;;;;;6.37;4.90;;;;;;;-141.28;100.00;49168.44;5112883;28;20631;-72
2022/09/13 03:07:10;;;;;;;14.17;5.47;;;;;;;-141.28;100.00;49164.53;5111467;28;20203;-71
2022/09/13 03:09:48;;;;;;;7.93;6.07;;;;;;;-141.28;100.00;49170.41;5101289;28;20215;-71
2022/09/13 03:12:33;;;;;;;8.33;5.53;;;;;;;-141.28;100.00;49231.22;5097705;28;20195;-71
2022/09/13 03:15:11;;;;;;;7.30;5.27;;;;;;;-141.28;100.00;49219.47;5095672;28;20211;-71
2022/09/13 03:17:51;;;;;;;11.23;6.20;;;;;;;-141.28;100.00;49205.72;5092271;28;20592;-71
2022/09/13 03:20:30;;;;;;;9.97;6.10;;;;;;;-141.28;100.00;49197.88;5091868;28;20219;-71
2022/09/13 03:23:32;;;;;;;9.17;6.07;;;;;;;-141.28;100.00;49219.47;5072311;28;20211;-71
2022/09/13 03:26:21;;;;;;;10.53;6.17;;;;;;;-141.28;100.00;49229.28;5099063;28;20204;-71
2022/09/13 03:29:02;;;;;;;9.03;6.03;;;;;;;-141.28;100.00;49203.75;5086865;28;20206;-71
2022/09/13 03:31:36;;;;;;;7.00;5.77;;;;;;;-141.28;100.00;49168.44;5102546;28;20539;-72
2022/09/13 03:34:09;;;;;;;12.20;6.23;;;;;;;-141.28;100.00;49152.75;5109020;28;20191;-71
2022/09/13 03:36:44;;;;;;;13.83;6.20;;;;;;;-141.28;100.00;49137.06;5096678;28;20287;-70
2022/09/13 03:39:20;;;;;;;10.10;6.30;;;;;;;-141.28;100.00;49152.75;5091648;28;20199;-71
2022/09/13 03:41:53;;;;;;;11.30;6.20;;;;;;;-141.28;100.00;49156.66;5095937;28;20202;-71
2022/09/13 03:44:23;;;;;;;10.97;6.27;;;;;;;-141.28;100.00;49152.75;5111713;28;20190;-72
2022/09/13 03:46:56;;;;;;;10.07;6.83;;;;;;;-141.28;100.00;49152.75;5090773;28;20654;-73
2022/09/13 03:52:12;;;;;;;10.30;6.63;;;;;;;-141.28;100.00;49250.84;5111611;28;20199;-74
2022/09/13 03:54:39;;;;;;;10.33;6.70;;;;;;;-141.28;100.00;49217.50;5096599;28;20202;-76
2022/09/13 03:57:13;;;;;;;9.17;6.67;;;;;;;-141.28;100.00;49311.69;5099599;28;20289;-73
2022/09/13 03:59:43;;;;;;;13.23;7.63;;;;;;;-141.28;100.00;49329.34;5081696;28;20535;-71
2022/09/13 04:02:11;;;;;;;8.70;7.07;;;;;;;-141.28;100.00;49333.25;5082692;28;20196;-77
2022/09/13 04:04:39;;;;;;;17.50;7.07;;;;;;;-141.28;100.00;49333.25;5088450;28;20227;-74
2022/09/13 04:07:06;;;;;;;13.20;7.53;;;;;;;-141.28;100.00;49348.97;5099984;28;20279;-73
2022/09/13 04:09:35;;;;;;;16.80;7.97;;;;;;;-141.28;100.00;49368.59;5092391;28;20671;-74
2022/09/13 04:12:03;;;;;;;17.80;7.87;;;;;;;-141.28;100.00;49374.47;5092584;28;20260;-74
2022/09/13 04:14:32;;;;;;;54.77;26.93;;;;;;;-141.28;100.00;49403.91;5103260;28;20681;-72
2022/09/13 04:16:59;;;;;;;37.90;10.23;;;;;;;-141.28;100.00;49380.34;5088478;28;20202;-72
2022/09/13 04:19:27;;;;;;;28.43;16.07;;;;;;;-141.28;100.00;49372.50;5107897;28;20199;-76
2022/09/13 04:21:55;;;;;;;37.07;18.80;;;;;;;-141.28;100.00;49360.75;5111068;28;20223;-79
2022/09/13 04:24:25;;;;;;;19.93;9.07;;;;;;;-141.28;100.00;49341.13;5097491;28;20250;-79
2022/09/13 04:26:55;;;;;;;16.97;10.03;;;;;;;-141.28;100.00;49341.13;5084591;28;20196;-78
2022/09/13 04:29:23;;;;;;;15.47;7.23;;;;;;;-141.28;100.00;49333.25;5072665;28;20227;-76
2022/09/13 04:31:52;;;;;;;12.07;8.70;;;;;;;-141.28;100.00;49343.06;5091468;28;20768;-76
2022/09/13 04:34:21;;;;;;;17.93;8.63;;;;;;;-141.28;100.00;49388.22;5107886;28;20203;-81
2022/09/13 04:36:49;;;;;;;35.50;25.47;;;;;;;-141.28;100.00;49435.31;5094869;28;20200;-83
2022/09/13 04:39:16;;;;;;;26.70;18.03;;;;;;;-141.28;100.00;49492.22;5091307;28;20253;-74
2022/09/13 04:41:44;;;;;;;19.13;7.73;;;;;;;-141.28;100.00;49555.00;5102928;28;20246;-72
2022/09/13 04:44:13;;;;;;;17.90;8.57;;;;;;;-141.28;100.00;49604.06;5101093;28;20195;-73
2022/09/13 04:46:40;;;;;;;15.00;6.60;;;;;;;-141.28;100.00;49578.56;5109921;28;20606;-73
2022/09/13 04:49:09;;;;;;;15.17;6.60;;;;;;;-141.28;100.00;49505.94;5100036;28;20283;-73
2022/09/13 04:51:36;;;;;;;13.00;7.40;;;;;;;-141.28;100.00;49470.63;5091554;28;20560;-73
2022/09/13 04:54:04;;;;;;;17.70;6.57;;;;;;;-141.28;100.00;49447.06;5090809;28;20207;-72
2022/09/13 04:56:31;;;;;;;13.30;7.50;;;;;;;-141.28;100.00;49427.44;5100686;28;20199;-74
2022/09/13 04:58:58;;;;;;;12.80;6.63;;;;;;;-141.28;100.00;49411.75;5097511;28;20645;-73
2022/09/13 05:01:26;;;;;;;14.83;7.57;;;;;;;-141.28;100.00;49396.06;5098631;28;20280;-75
2022/09/13 05:03:54;;;;;;;16.00;7.57;;;;;;;-141.28;100.00;49384.28;5074218;28;20204;-74
2022/09/13 05:06:22;;;;;;;16.30;6.80;;;;;;;-141.28;100.00;49386.25;5096621;28;20201;-73
2022/09/13 05:08:53;;;;;;;13.60;6.83;;;;;;;-141.28;100.00;49398.03;5083042;28;20197;-72
2022/09/13 05:11:21;;;;;;;17.57;7.23;;;;;;;-141.28;100.00;49396.06;5102457;28;20195;-75
2022/09/13 05:13:51;;;;;;;15.63;7.30;;;;;;;-141.28;100.00;49407.84;5091122;28;20203;-73
2022/09/13 05:16:19;;;;;;;18.10;7.17;;;;;;;-141.28;100.00;49415.69;5074852;28;20305;-74
2022/09/13 05:18:48;;;;;;;80.37;12.90;;;;;;;-141.28;100.00;49396.06;5094755;28;20281;-78
2022/09/13 05:21:16;;;;;;;31.17;7.97;;;;;;;-141.28;100.00;49447.06;5089909;28;20215;-76
2022/09/13 05:23:43;;;;;;;179.33;135.20;;;;;;;-141.28;100.00;49431.38;5091814;28;20196;-77
2022/09/13 05:26:10;;;;;;;50.70;30.07;;;;;;;-141.28;100.00;49517.72;5091905;28;20196;-75
2022/09/13 05:28:38;;;;;;;54.23;12.27;;;;;;;-141.28;100.00;49629.56;5087005;28;20196;-75
2022/09/13 05:31:06;;;;;;;31.77;10.67;;;;;;;-141.28;100.00;49906.28;5088734;28;20195;-76
2022/09/13 05:33:35;;;;;;;16.93;6.07;;;;;;;-141.28;100.00;50130.00;5076338;28;20225;-74
2022/09/13 05:36:05;;;;;;;35.87;7.77;;;;;;;-141.28;100.00;50402.84;5077256;28;20200;-82
2022/09/13 05:38:32;;;;;;;15.17;6.10;;;;;;;-141.28;100.00;50671.75;5076178;28;20196;-76
2022/09/13 05:41:02;;;;;;;14.57;5.20;;;;;;;-141.28;100.00;51070.25;5089587;28;20229;-78
2022/09/13 05:43:31;;;;;;;11.30;5.00;;;;;;;-141.28;100.00;51347.09;5085498;28;20204;-77
2022/09/13 05:46:01;;;;;;;9.20;4.50;;;;;;;-141.28;100.00;51773.16;5073800;28;20629;-76
2022/09/13 05:48:28;;;;;;;7.63;4.30;;;;;;;-141.28;100.00;52032.38;5104765;28;20195;-78
2022/09/13 05:50:57;;;;;;;5.63;4.40;;;;;;;-141.28;100.00;52160.03;5086785;28;20204;-81
2022/09/13 05:53:26;;;;;;;10.63;4.30;;;;;;;-141.28;100.00;52297.50;5087941;28;20616;-75
2022/09/13 05:55:55;;;;;;;10.43;4.20;;;;;;;-141.28;100.00;52370.16;5083928;28;20200;-76
2022/09/13 05:58:22;;;;;;;46.53;25.20;;;;;;;-141.28;100.00;52486.03;5092220;28;20650;-80
2022/09/13 06:00:54;;;;;;;19.10;9.93;;;;;;;-141.28;100.00;52531.22;5112625;28;20218;-76
2022/09/13 06:03:21;;;;;;;19.80;9.90;;;;;;;-141.28;100.00;52517.47;5113969;28;20690;-76
2022/09/13 06:05:48;;;;;;;12.27;6.33;;;;;;;-141.28;100.00;52419.25;5100309;28;20235;-75
2022/09/13 06:08:18;;;;;;;13.37;5.93;;;;;;;-141.28;100.00;52395.69;5093742;28;20207;-76
2022/09/13 06:10:53;;;;;;;9.77;4.37;;;;;;;-141.28;100.00;52393.72;5098043;28;20206;-75
2022/09/13 06:13:23;;;;;;;7.33;4.20;;;;;;;-141.28;100.00;52289.63;5087354;28;20219;-79
2022/09/13 06:15:51;;;;;;;8.33;3.80;;;;;;;-141.28;100.00;52281.78;5094005;28;20567;-77
2022/09/13 06:18:18;;;;;;;4.30;3.53;;;;;;;-141.28;100.00;52289.63;5086214;28;20282;-80
2022/09/13 06:20:47;;;;;;;6.80;3.00;;;;;;;-141.28;100.00;52289.63;5105381;28;20215;-77
2022/09/13 06:23:16;;;;;;;8.30;3.50;;;;;;;-141.28;100.00;52222.88;5079425;28;21354;-77
2022/09/13 06:25:46;;;;;;;3.37;2.90;;;;;;;-141.28;100.00;52124.66;5084696;28;20203;-76
2022/09/13 06:28:13;;;;;;;5.53;3.40;;;;;;;-141.28;100.00;52099.13;5084740;28;20191;-78
2022/09/13 06:30:44;;;;;;;4.77;3.10;;;;;;;-141.28;100.00;52000.94;5111303;28;20211;-77
2022/09/13 06:33:12;;;;;;;4.97;2.83;;;;;;;-141.28;100.00;51995.06;5084680;28;20659;-78
2022/09/13 06:35:41;;;;;;;4.53;3.07;;;;;;;-141.28;100.00;52067.72;5099794;28;20326;-78
2022/09/13 06:38:08;;;;;;;5.00;3.33;;;;;;;-141.28;100.00;52006.84;5092670;28;20234;-78
2022/09/13 06:40:36;;;;;;;5.97;3.00;;;;;;;-141.28;100.00;52028.44;5091944;28;20321;-78
2022/09/13 06:43:05;;;;;;;6.47;2.97;;;;;;;-141.28;100.00;51865.47;5084167;28;20291;-78
2022/09/13 06:45:32;;;;;;;5.70;3.33;;;;;;;-141.28;100.00;51767.28;5104536;28;20587;-78
2022/09/13 06:48:00;;;;;;;4.67;2.90;;;;;;;-141.28;100.00;51663.19;5102963;28;20207;-78
2022/09/13 06:50:27;;;;;;;4.00;3.17;;;;;;;-141.28;100.00;51621.97;5071221;28;20261;-79
2022/09/13 06:52:56;;;;;;;8.47;3.10;;;;;;;-141.28;100.00;51327.44;5083837;28;20199;-77
2022/09/13 06:55:27;;;;;;;6.13;3.40;;;;;;;-141.28;100.00;51417.78;5074810;28;20200;-77
2022/09/13 06:57:55;;;;;;;6.00;3.20;;;;;;;-141.28;100.00;51449.19;5081216;28;20196;-80
2022/09/13 07:00:46;;;;;;;5.07;3.10;;;;;;;-141.28;100.00;51362.78;5076818;28;20196;-79
2022/09/13 07:03:13;;;;;;;4.23;3.00;;;;;;;-141.28;100.00;51382.44;5084374;28;20663;-77
2022/09/13 07:05:42;;;;;;;4.13;3.00;;;;;;;-141.28;100.00;51274.44;5086624;28;20243;-78
2022/09/13 07:08:12;;;;;;;4.03;2.80;;;;;;;-141.28;100.00;51160.56;5098847;28;20202;-79
2022/09/13 07:10:39;;;;;;;5.17;3.13;;;;;;;-141.28;100.00;51103.63;5112583;28;20580;-78
2022/09/13 07:13:06;;;;;;;5.80;3.20;;;;;;;-141.28;100.00;51058.47;5071729;28;20640;-79
2022/09/13 07:15:40;;;;;;;4.50;2.83;;;;;;;-141.28;100.00;50834.69;5073047;28;20744;-78
2022/09/13 07:18:17;;;;;;;6.33;3.20;;;;;;;-141.28;100.00;50601.09;5113401;28;20209;-77
2022/09/13 07:20:44;;;;;;;6.63;2.60;;;;;;;-141.28;100.00;50495.09;5077249;28;20199;-78
2022/09/13 07:23:13;;;;;;;4.13;3.40;;;;;;;-141.28;100.00;50432.28;5082158;28;20291;-80
2022/09/13 07:25:39;;;;;;;5.13;2.53;;;;;;;-141.28;100.00;50391.06;5102842;28;20199;-77
2022/09/13 07:28:06;;;;;;;6.70;3.13;;;;;;;-141.28;100.00;50349.84;5102237;28;20203;-77
2022/09/13 07:30:34;;;;;;;3.87;2.80;;;;;;;-141.28;100.00;50334.13;5093788;28;20206;-78
2022/09/13 07:33:03;;;;;;;3.27;2.90;;;;;;;-141.28;100.00;50330.22;5091312;28;20204;-77
2022/09/13 07:35:31;;;;;;;4.50;3.20;;;;;;;-141.28;100.00;50487.25;5096151;28;20206;-77
2022/09/13 07:37:58;;;;;;;3.80;2.73;;;;;;;-141.28;100.00;50491.16;5100634;28;20200;-77
2022/09/13 07:40:24;;;;;;;5.77;3.10;;;;;;;-141.28;100.00;50396.94;5091496;28;20634;-77
2022/09/13 07:42:51;;;;;;;4.43;2.80;;;;;;;-141.28;100.00;50247.78;5103191;28;20233;-78
2022/09/13 07:45:19;;;;;;;5.33;2.93;;;;;;;-141.28;100.00;50084.88;5105663;28;20223;-77
2022/09/13 07:47:47;;;;;;;5.80;2.80;;;;;;;-141.28;100.00;50024.03;5103612;28;20214;-79
2022/09/13 07:50:16;;;;;;;8.50;2.77;;;;;;;-141.28;100.00;50444.06;5111777;28;20207;-78
2022/09/13 07:52:43;;;;;;;3.03;2.50;;;;;;;-141.28;100.00;50373.38;5098347;28;20206;-78
2022/09/13 07:55:11;;;;;;;3.73;2.73;;;;;;;-141.28;100.00;50275.25;5085336;28;20621;-79
2022/09/13 07:57:38;;;;;;;5.37;2.57;;;;;;;-141.28;100.00;50226.19;5078092;28;20206;-77
2022/09/13 08:00:07;;;;;;;8.17;3.00;;;;;;;-141.28;100.00;50049.53;5079142;28;20200;-77
2022/09/13 08:02:36;;;;;;;4.10;2.30;;;;;;;-141.28;100.00;50247.78;5078604;28;20227;-77
2022/09/13 08:05:02;;;;;;;4.10;2.40;;;;;;;-141.28;100.00;50192.81;5078048;28;20271;-78
2022/09/13 08:07:31;;;;;;;3.97;2.50;;;;;;;-141.28;100.00;50116.28;5081142;28;20274;-78
2022/09/13 08:09:59;;;;;;;6.80;2.57;;;;;;;-141.28;100.00;50071.13;5071426;28;20192;-78
2022/09/13 08:12:26;;;;;;;2.80;2.33;;;;;;;-141.28;100.00;49921.97;5081250;28;20564;-78
2022/09/13 08:14:58;;;;;;;5.57;2.73;;;;;;;-141.28;100.00;49804.22;5078382;28;20222;-79
2022/09/13 08:17:24;;;;;;;3.47;2.30;;;;;;;-141.28;100.00;49633.50;5082694;28;20657;-77
2022/09/13 08:19:51;;;;;;;5.07;2.10;;;;;;;-141.28;100.00;49505.94;5091941;28;20206;-78
2022/09/13 08:22:19;;;;;;;4.17;3.07;;;;;;;-141.28;100.00;49396.06;5082428;28;20259;-78
2022/09/13 08:24:47;;;;;;;3.53;2.47;;;;;;;-141.28;100.00;49403.91;5072241;28;20731;-78
2022/09/13 08:27:14;;;;;;;2.33;2.10;;;;;;;-141.28;100.00;49266.56;5071887;28;20658;-78
2022/09/13 08:29:44;;;;;;;5.53;2.20;;;;;;;-141.28;100.00;49229.28;5076562;28;20290;-78
2022/09/13 08:32:12;;;;;;;2.80;2.00;;;;;;;-141.28;100.00;49152.75;5082721;28;20204;-79
2022/09/13 08:34:40;;;;;;;2.27;2.07;;;;;;;-141.28;100.00;49154.72;5075972;28;20200;-78
2022/09/13 08:37:06;;;;;;;3.20;2.10;;;;;;;-141.28;100.00;49127.25;5076520;28;20196;-79
2022/09/13 08:39:33;;;;;;;2.70;2.37;;;;;;;-141.28;100.00;49131.16;5091786;28;20280;-79
2022/09/13 08:42:26;;;;;;;3.03;2.63;;;;;;;-141.28;100.00;49131.16;5076358;28;20227;-77
2022/09/13 08:44:56;;;;;;;5.90;2.57;;;;;;;-141.28;100.00;49121.34;5071239;28;20690;-79
2022/09/13 08:47:38;;;;;;;8.57;3.00;;;;;;;-141.28;100.00;49109.59;5093187;28;20206;-78
2022/09/13 08:50:14;;;;;;;3.90;2.20;;;;;;;-141.28;100.00;49113.50;5095791;28;20198;-78
2022/09/13 08:52:52;;;;;;;6.10;2.40;;;;;;;-141.28;100.00;49133.13;5076159;28;20308;-78
2022/09/13 08:55:36;;;;;;;2.50;2.30;;;;;;;-141.28;100.00;49227.31;5077826;28;20654;-78
2022/09/13 08:58:18;;;;;;;10.97;2.90;;;;;;;-141.28;100.00;49274.41;5086012;28;20284;-79
2022/09/13 09:00:51;;;;;;;2.93;2.17;;;;;;;-141.28;100.00;49223.38;5086522;28;20205;-78
2022/09/13 09:03:26;;;;;;;2.97;2.20;;;;;;;-141.28;100.00;49195.91;5100779;28;20599;-79
2022/09/13 09:05:53;;;;;;;2.33;2.10;;;;;;;-141.28;100.00;49176.28;5088436;28;20224;-76
2022/09/13 09:08:32;;;;;;;4.83;2.00;;;;;;;-141.28;100.00;49054.66;5099853;28;20397;-77
2022/09/13 09:11:05;;;;;;;10.67;2.93;;;;;;;-141.28;100.00;49058.56;5099487;28;20195;-77
2022/09/13 09:13:39;;;;;;;5.40;2.20;;;;;;;-141.28;100.00;49027.19;5102115;28;20187;-75
2022/09/13 09:16:14;;;;;;;13.60;2.93;;;;;;;-141.28;100.00;49093.88;5098014;28;20277;-77
2022/09/13 09:18:47;;;;;;;4.27;2.10;;;;;;;-141.28;100.00;49054.66;5104164;28;20200;-78
2022/09/13 09:21:17;;;;;;;6.60;2.10;;;;;;;-141.28;100.00;49099.78;5102695;28;20198;-80
2022/09/13 09:23:51;;;;;;;4.93;2.27;;;;;;;-141.28;100.00;49133.13;5100538;28;20197;-79
2022/09/13 09:26:21;;;;;;;41.05;4.35;;;;;;;-141.28;100.00;49137.06;5098298;28;20428;-81
2022/09/13 09:28:51;;;;;;;14.50;3.53;;;;;;;-141.28;100.00;49172.38;5113496;28;20285;-81
2022/09/13 09:31:32;;;;;;;8.93;3.10;;;;;;;-141.28;100.00;49144.91;5085898;28;20299;-80
2022/09/13 09:34:12;;;;;;;9.73;3.17;;;;;;;-141.28;100.00;49192.00;5103513;28;20202;-79
2022/09/13 09:36:42;;;;;;;2.10;1.90;;;;;;;-141.28;100.00;49168.44;5112514;28;20217;-74
2022/09/13 09:39:15;;;;;;;3.77;2.30;;;;;;;-141.28;100.00;49164.53;5096825;28;20233;-74
2022/09/13 09:41:43;;;;;;;7.63;3.07;;;;;;;-141.28;100.00;49154.72;5091103;28;20229;-76
2022/09/13 09:44:19;;;;;;;2.80;2.03;;;;;;;-141.28;100.00;49152.75;5108828;28;20195;-76
2022/09/13 09:46:50;;;;;;;6.10;2.37;;;;;;;-141.28;100.00;49111.53;5110611;28;20190;-77
2022/09/13 09:52:10;;;;;;;5.53;3.23;;;;;;;-141.28;100.00;49109.59;5096621;28;20202;-78
2022/09/13 09:54:38;;;;;;;4.10;2.60;;;;;;;-141.28;100.00;49133.13;5106368;28;20278;-79
2022/09/13 09:57:07;;;;;;;6.13;2.53;;;;;;;-141.28;100.00;49140.97;5095953;28;20274;-80
2022/09/13 09:59:36;;;;;;;3.93;2.23;;;;;;;-141.28;100.00;49515.75;5104021;28;20195;-78
2022/09/13 10:02:16;;;;;;;2.53;2.10;;;;;;;-141.28;100.00;49117.44;5109714;28;20252;-79
2022/09/13 10:04:43;;;;;;;4.80;2.60;;;;;;;-141.28;100.00;49133.13;5085757;28;20318;-78
2022/09/13 10:07:26;;;;;;;3.33;1.93;;;;;;;-141.28;100.00;49115.47;5097564;28;20244;-78
2022/09/13 10:09:58;;;;;;;3.00;2.10;;;;;;;-141.28;100.00;49109.59;5111793;28;20248;-83
2022/09/13 10:12:28;;;;;;;3.37;2.00;;;;;;;-141.28;100.00;49042.88;5108896;28;20276;-79
2022/09/13 10:15:05;;;;;;;2.50;1.80;;;;;;;-141.28;100.00;49360.75;5062304;28;20211;-79
2022/09/13 10:17:32;;;;;;;1.80;1.70;;;;;;;-141.28;100.00;49089.97;5085469;28;20282;-80
2022/09/13 10:20:02;;;;;;;3.60;2.07;;;;;;;-141.28;100.00;49137.06;5078158;28;20200;-76
2022/09/13 10:22:31;;;;;;;9.63;2.57;;;;;;;-141.28;100.00;49123.31;5085813;28;20607;-83
2022/09/13 10:25:15;;;;;;;13.07;7.73;;;;;;;-141.28;100.00;49140.97;5111532;28;20560;-75
2022/09/13 10:27:47;;;;;;;5.10;3.67;;;;;;;-141.28;100.00;49105.66;5101123;28;20206;-84
2022/09/13 10:30:31;;;;;;;4.10;2.60;;;;;;;-141.28;100.00;49121.34;5104830;28;20214;-81
2022/09/13 10:32:59;;;;;;;3.30;3.00;;;;;;;-141.28;100.00;48944.78;5099953;28;20230;-77
2022/09/13 10:35:26;;;;;;;3.30;2.67;;;;;;;-141.28;100.00;49044.84;5102732;28;20248;-77
2022/09/13 10:37:54;;;;;;;4.70;4.03;;;;;;;-141.28;100.00;49082.13;5106424;28;20195;-80
2022/09/13 10:40:29;;;;;;;2.67;2.33;;;;;;;-141.28;100.00;49105.66;5084671;28;20266;-80
2022/09/13 10:42:58;;;;;;;3.00;2.70;;;;;;;-141.28;100.00;49086.03;5088386;28;20629;-79
2022/09/13 10:45:30;;;;;;;11.07;3.67;;;;;;;-141.28;100.00;49066.41;5099444;28;20223;-76
2022/09/13 10:48:07;;;;;;;2.27;1.97;;;;;;;-141.28;100.00;49066.41;5092489;28;20404;-81
2022/09/13 10:50:35;;;;;;;3.37;2.50;;;;;;;-141.28;100.00;48984.00;5097739;28;20186;-80
2022/09/13 10:53:04;;;;;;;2.43;2.20;;;;;;;-141.28;100.00;49035.03;5102689;28;20749;-79
2022/09/13 10:55:34;;;;;;;3.70;2.17;;;;;;;-141.28;100.00;49062.50;5104549;28;20204;-74
2022/09/13 10:58:18;;;;;;;2.97;2.00;;;;;;;-141.28;100.00;49089.97;5099131;28;20629;-76
2022/09/13 11:01:13;;;;;;;1.90;1.80;;;;;;;-141.28;100.00;49105.66;5078778;28;20195;-76
2022/09/13 11:04:02;;;;;;;2.30;2.03;;;;;;;-141.28;100.00;49062.50;5103005;28;20278;-79
2022/09/13 11:06:38;;;;;;;3.50;1.70;;;;;;;-141.28;100.00;49089.97;5099767;28;20219;-77
2022/09/13 11:09:12;;;;;;;2.40;2.20;;;;;;;-141.28;100.00;49117.44;5107759;28;20214;-77
2022/09/13 11:11:49;;;;;;;2.37;2.03;;;;;;;-141.28;100.00;49084.06;5103876;28;20194;-77
2022/09/13 11:14:34;;;;;;;3.13;2.53;;;;;;;-141.28;100.00;49033.06;5096958;28;20206;-80
2022/09/13 11:17:13;;;;;;;2.77;2.17;;;;;;;-141.28;100.00;49003.63;5102489;28;20210;-78
2022/09/13 11:19:57;;;;;;;8.20;2.87;;;;;;;-141.28;100.00;48834.91;5105521;28;20215;-81
2022/09/13 11:22:38;;;;;;;3.07;2.00;;;;;;;-141.28;100.00;49333.25;5085621;28;21054;-79
2022/09/13 11:25:18;;;;;;;5.43;2.60;;;;;;;-141.28;100.00;48948.69;5092875;28;20191;-83
2022/09/13 11:27:54;;;;;;;2.27;2.03;;;;;;;-141.28;96.00;49007.56;5080398;28;20204;-82
2022/09/13 11:30:24;;;;;;;2.20;2.00;;;;;;;-141.28;98.77;49021.28;5085898;28;20204;-77
2022/09/13 11:33:12;;;;;;;2.93;1.60;;;;;;;-141.28;100.00;49050.72;5086025;28;20199;-77